Time;durP1;ratioP1;P1;durP2;ratioP2;P2;SDS_P1;SDS_P2;PMS_P1;PMS_P2;Temp;Humidity;BMP_temperature;BMP_pressure;BME280_temperature;BME280_humidity;BME280_pressure;Samples;Min_cycle;Max_cycle;Signal;HPM_P1;HPM_P2
2022/07/26 00:01:45;;;;;;;16.30;3.80;;;;;;;16.29;100.00;101188.28;5051219;28;20491;-63
2022/07/26 00:04:11;;;;;;;15.95;4.10;;;;;;;16.32;100.00;101183.75;5052231;28;20118;-63
2022/07/26 00:06:36;;;;;;;17.58;3.90;;;;;;;16.33;100.00;101184.66;5052878;28;20021;-64
2022/07/26 00:09:02;;;;;;;17.25;3.85;;;;;;;16.34;100.00;101187.31;5052342;28;20387;-64
2022/07/26 00:11:29;;;;;;;16.35;3.63;;;;;;;16.36;100.00;101182.81;5052500;28;20025;-63
2022/07/26 00:13:54;;;;;;;15.75;3.58;;;;;;;16.39;100.00;101185.44;5052691;28;20025;-64
2022/07/26 00:16:20;;;;;;;17.60;4.03;;;;;;;16.39;100.00;101185.44;5052318;28;20125;-63
2022/07/26 00:18:46;;;;;;;17.20;3.75;;;;;;;16.41;100.00;101187.22;5052391;28;20119;-64
2022/07/26 00:21:11;;;;;;;17.42;3.70;;;;;;;16.40;100.00;101186.34;5052687;28;20036;-63
2022/07/26 00:23:37;;;;;;;16.13;3.60;;;;;;;16.39;100.00;101180.09;5052251;28;20025;-63
2022/07/26 00:26:03;;;;;;;16.38;3.67;;;;;;;16.36;100.00;101180.16;5052717;28;20069;-64
2022/07/26 00:28:28;;;;;;;17.25;3.58;;;;;;;16.38;100.00;101194.38;5052375;28;20104;-64
2022/07/26 00:30:53;;;;;;;17.08;3.75;;;;;;;16.35;100.00;101188.19;5052147;28;20029;-63
2022/07/26 00:33:19;;;;;;;15.32;3.55;;;;;;;16.34;100.00;101189.09;5052422;28;20048;-63
2022/07/26 00:35:44;;;;;;;15.30;3.83;;;;;;;16.30;100.00;101196.25;5051966;28;20060;-63
2022/07/26 00:38:09;;;;;;;16.20;3.47;;;;;;;16.29;100.00;101201.59;5052065;28;20025;-63
2022/07/26 00:40:35;;;;;;;15.52;3.65;;;;;;;16.26;100.00;101198.97;5052331;28;20033;-63
2022/07/26 00:43:00;;;;;;;17.25;3.60;;;;;;;16.24;100.00;101193.66;5052402;28;20021;-64
2022/07/26 00:45:26;;;;;;;17.40;3.70;;;;;;;16.26;100.00;101189.19;5052016;28;20430;-63
2022/07/26 00:47:51;;;;;;;18.67;3.58;;;;;;;16.28;100.00;101200.72;5052203;28;20438;-63
2022/07/26 00:50:18;;;;;;;17.17;3.70;;;;;;;16.27;100.00;101200.75;5051683;28;20399;-63
2022/07/26 00:52:46;;;;;;;19.55;3.92;;;;;;;16.28;100.00;101197.16;5052040;28;20039;-65
2022/07/26 00:55:12;;;;;;;19.67;3.63;;;;;;;16.28;100.00;101198.06;5052333;28;20025;-65
2022/07/26 00:57:40;;;;;;;14.07;3.45;;;;;;;16.31;100.00;101191.78;5052160;28;20021;-65
2022/07/26 01:00:10;;;;;;;16.75;3.72;;;;;;;16.28;100.00;101194.50;5052080;28;20515;-63
2022/07/26 01:02:35;;;;;;;17.02;3.70;;;;;;;16.25;100.00;101192.78;5056177;28;20032;-65
2022/07/26 01:05:01;;;;;;;16.83;3.40;;;;;;;16.26;100.00;101190.97;5055571;28;20025;-65
2022/07/26 01:07:28;;;;;;;17.52;3.90;;;;;;;16.24;100.00;101188.34;5051754;28;20028;-64
2022/07/26 01:09:53;;;;;;;17.98;3.50;;;;;;;16.22;100.00;101187.47;5055848;28;20025;-64
2022/07/26 01:12:19;;;;;;;16.52;3.83;;;;;;;16.22;100.00;101192.78;5055531;28;20032;-65
2022/07/26 01:14:44;;;;;;;18.10;4.00;;;;;;;16.25;100.00;101192.78;5055686;28;20073;-65
2022/07/26 01:17:11;;;;;;;17.00;3.80;;;;;;;16.27;100.00;101190.97;5055853;28;20032;-64
2022/07/26 01:19:36;;;;;;;18.05;3.95;;;;;;;16.25;100.00;101190.13;5055621;28;20165;-65
2022/07/26 01:22:02;;;;;;;19.58;4.20;;;;;;;16.26;100.00;101189.19;5055228;28;20032;-63
2022/07/26 01:24:27;;;;;;;18.58;4.32;;;;;;;16.28;100.00;101186.50;5055829;28;20032;-63
2022/07/26 01:26:54;;;;;;;18.15;4.15;;;;;;;16.27;100.00;101182.09;5055195;28;20021;-64
2022/07/26 01:29:20;;;;;;;19.95;4.18;;;;;;;16.27;100.00;101185.63;5055466;28;20029;-65
2022/07/26 01:31:46;;;;;;;18.38;4.03;;;;;;;16.25;100.00;101181.22;5055368;28;20036;-64
2022/07/26 01:34:11;;;;;;;19.98;4.47;;;;;;;16.25;100.00;101182.09;5055059;28;20025;-65
2022/07/26 01:36:37;;;;;;;19.17;4.18;;;;;;;16.24;100.00;101174.09;5055121;28;20502;-66
2022/07/26 01:39:02;;;;;;;22.33;4.80;;;;;;;16.25;100.00;101175.88;5055238;28;20021;-64
2022/07/26 01:41:28;;;;;;;17.77;3.95;;;;;;;16.24;100.00;101183.00;5055247;28;20029;-63
2022/07/26 01:43:53;;;;;;;18.92;4.72;;;;;;;16.21;100.00;101175.91;5055114;28;20036;-64
2022/07/26 01:46:19;;;;;;;21.58;4.45;;;;;;;16.23;100.00;101186.56;5054853;28;20032;-64
2022/07/26 01:48:44;;;;;;;20.80;4.40;;;;;;;16.24;100.00;101184.78;5055091;28;20106;-64
2022/07/26 01:51:09;;;;;;;21.27;4.60;;;;;;;16.25;100.00;101187.44;5054590;28;20045;-64
2022/07/26 01:53:35;;;;;;;20.30;4.80;;;;;;;16.27;100.00;101185.63;5054771;28;20028;-64
2022/07/26 01:56:00;;;;;;;20.50;5.10;;;;;;;16.28;100.00;101187.41;5054817;28;20036;-63
2022/07/26 01:58:25;;;;;;;21.05;5.28;;;;;;;16.27;100.00;101188.28;5054819;28;20021;-64
2022/07/26 02:00:51;;;;;;;20.55;5.03;;;;;;;16.29;100.00;101193.59;5054515;28;20037;-65
2022/07/26 02:03:16;;;;;;;19.08;4.65;;;;;;;16.30;100.00;101193.59;5054720;28;20083;-64
2022/07/26 02:05:41;;;;;;;20.58;4.90;;;;;;;16.34;100.00;101195.31;5054720;28;20078;-63
2022/07/26 02:08:07;;;;;;;21.42;5.07;;;;;;;16.32;100.00;101199.75;5054292;28;20089;-64
2022/07/26 02:13:17;;;;;;;20.98;5.57;;;;;;;16.29;100.00;101194.47;5054225;28;20040;-64
2022/07/26 02:15:42;;;;;;;21.17;5.53;;;;;;;16.28;100.00;101191.81;5054478;28;20039;-63
2022/07/26 02:18:08;;;;;;;22.25;5.50;;;;;;;16.26;100.00;101188.31;5054202;28;20520;-64
2022/07/26 02:20:33;;;;;;;20.55;5.40;;;;;;;16.26;100.00;101185.66;5054409;28;20021;-63
2022/07/26 02:23:03;;;;;;;22.27;5.63;;;;;;;16.25;100.00;101190.13;5054121;28;20021;-65
2022/07/26 02:25:29;;;;;;;21.83;5.53;;;;;;;16.26;100.00;101194.53;5050450;28;20028;-64
2022/07/26 02:27:54;;;;;;;22.00;5.60;;;;;;;16.25;100.00;101198.13;5054211;28;20456;-64
2022/07/26 02:30:20;;;;;;;22.10;5.70;;;;;;;16.24;100.00;101195.44;5054300;28;20127;-64
2022/07/26 02:32:46;;;;;;;22.23;5.80;;;;;;;16.21;100.00;101202.59;5053990;28;20092;-64
2022/07/26 02:35:13;;;;;;;20.38;5.50;;;;;;;16.20;100.00;101205.28;5053945;28;20429;-63
2022/07/26 02:37:41;;;;;;;21.83;6.47;;;;;;;16.18;100.00;101207.09;5053885;28;20467;-64
2022/07/26 02:40:07;;;;;;;23.45;5.85;;;;;;;16.18;100.00;101209.75;5054045;28;20079;-63
2022/07/26 02:42:33;;;;;;;21.70;6.15;;;;;;;16.17;100.00;101208.00;5054013;28;20032;-64
2022/07/26 02:44:58;;;;;;;23.75;6.10;;;;;;;16.14;100.00;101210.69;5053789;28;20426;-64
2022/07/26 02:47:24;;;;;;;23.38;6.10;;;;;;;16.15;100.00;101212.44;5053998;28;20028;-63
2022/07/26 02:49:49;;;;;;;22.55;6.20;;;;;;;16.15;100.00;101212.44;5053841;28;20392;-63
2022/07/26 02:52:14;;;;;;;22.90;6.30;;;;;;;16.16;100.00;101215.13;5053332;28;20048;-64
2022/07/26 02:54:40;;;;;;;23.48;6.20;;;;;;;16.18;100.00;101217.78;5053698;28;20082;-65
2022/07/26 02:57:05;;;;;;;23.05;6.50;;;;;;;16.18;100.00;101217.78;5053593;28;20383;-65
2022/07/26 02:59:31;;;;;;;26.77;6.40;;;;;;;16.18;100.00;101223.97;5053527;28;20033;-63
2022/07/26 03:01:57;;;;;;;22.55;6.78;;;;;;;16.18;100.00;101215.97;5053658;28;20025;-65
2022/07/26 03:04:22;;;;;;;23.15;6.50;;;;;;;16.16;100.00;101220.47;5053798;28;20025;-65
2022/07/26 03:06:47;;;;;;;24.05;6.50;;;;;;;16.23;100.00;101220.38;5053308;28;20021;-64
2022/07/26 03:09:13;;;;;;;24.90;6.47;;;;;;;16.20;100.00;101221.28;5052238;28;20047;-64
2022/07/26 03:11:38;;;;;;;23.30;6.70;;;;;;;16.20;100.00;101224.81;5053564;28;20079;-64
2022/07/26 03:14:04;;;;;;;22.45;6.25;;;;;;;16.20;100.00;101226.63;5053518;28;20141;-64
2022/07/26 03:16:29;;;;;;;23.83;7.20;;;;;;;16.18;100.00;101228.44;5053609;28;20356;-63
2022/07/26 03:18:55;;;;;;;24.83;6.60;;;;;;;16.19;100.00;101236.41;5053205;28;20078;-63
2022/07/26 03:21:20;;;;;;;25.42;6.75;;;;;;;16.19;100.00;101232.84;5053015;28;20494;-65
2022/07/26 03:23:45;;;;;;;22.50;6.63;;;;;;;16.18;100.00;101242.63;5052672;28;20029;-65
2022/07/26 03:26:11;;;;;;;25.35;6.68;;;;;;;16.21;100.00;101239.94;5052850;28;20021;-64
2022/07/26 03:28:38;;;;;;;22.95;6.25;;;;;;;16.20;100.00;101238.16;5052848;28;20039;-66
2022/07/26 03:31:03;;;;;;;24.23;6.60;;;;;;;16.20;100.00;101237.28;5053374;28;20048;-64
2022/07/26 03:33:29;;;;;;;23.92;6.50;;;;;;;16.22;100.00;101248.81;5052891;28;20586;-66
2022/07/26 03:35:54;;;;;;;22.83;6.50;;;;;;;16.19;100.00;101252.41;5052725;28;20033;-65
2022/07/26 03:38:20;;;;;;;23.10;6.25;;;;;;;16.19;100.00;101257.75;5053163;28;20025;-64
2022/07/26 03:40:45;;;;;;;23.90;6.50;;;;;;;16.19;100.00;101254.19;5052751;28;20017;-65
2022/07/26 03:43:10;;;;;;;23.85;6.65;;;;;;;16.18;100.00;101257.78;5053033;28;20064;-63
2022/07/26 03:45:36;;;;;;;22.42;6.70;;;;;;;16.16;100.00;101265.78;5053108;28;20024;-65
2022/07/26 03:48:01;;;;;;;25.35;7.20;;;;;;;16.14;100.00;101264.91;5052932;28;20032;-65
2022/07/26 03:50:26;;;;;;;22.80;6.70;;;;;;;16.14;100.00;101262.25;5052803;28;20053;-65
2022/07/26 03:52:52;;;;;;;25.05;7.00;;;;;;;16.12;100.00;101260.50;5052558;28;20037;-64
2022/07/26 03:58:01;;;;;;;24.85;7.15;;;;;;;16.09;100.00;101261.44;5049066;28;20031;-64
2022/07/26 04:00:26;;;;;;;22.63;6.60;;;;;;;16.12;100.00;101266.72;5052668;28;20044;-64
2022/07/26 04:02:52;;;;;;;23.63;7.15;;;;;;;16.09;100.00;101265.88;5052486;28;20019;-65
2022/07/26 04:05:17;;;;;;;23.02;7.10;;;;;;;16.09;100.00;101265.88;5052537;28;20376;-64
2022/07/26 04:07:44;;;;;;;25.20;7.30;;;;;;;16.11;100.00;101264.06;5052830;28;20131;-64
2022/07/26 04:10:10;;;;;;;24.83;7.00;;;;;;;16.11;100.00;101269.41;5052643;28;20037;-65
2022/07/26 04:12:36;;;;;;;22.45;6.93;;;;;;;16.12;100.00;101269.38;5052469;28;20438;-64
2022/07/26 04:15:01;;;;;;;23.52;7.43;;;;;;;16.15;100.00;101271.13;5052528;28;20028;-65
2022/07/26 04:17:26;;;;;;;24.08;7.20;;;;;;;16.15;100.00;101268.44;5052288;28;20025;-63
2022/07/26 04:19:52;;;;;;;26.20;7.57;;;;;;;16.17;100.00;101264.88;5052634;28;20036;-65
2022/07/26 04:22:17;;;;;;;24.45;7.68;;;;;;;16.19;100.00;101260.41;5052380;28;20025;-63
2022/07/26 04:24:42;;;;;;;23.08;7.43;;;;;;;16.20;100.00;101267.50;5052191;28;20055;-65
2022/07/26 04:27:08;;;;;;;22.17;7.38;;;;;;;16.25;100.00;101271.91;5052434;28;20063;-63
2022/07/26 04:29:33;;;;;;;23.17;7.60;;;;;;;16.25;100.00;101279.91;5052371;28;20118;-63
2022/07/26 04:31:58;;;;;;;23.88;7.13;;;;;;;16.29;100.00;101279.84;5052115;28;20468;-63
2022/07/26 04:34:24;;;;;;;24.70;7.55;;;;;;;16.27;100.00;101278.97;5052296;28;20032;-63
2022/07/26 04:36:49;;;;;;;23.92;7.40;;;;;;;16.29;100.00;101284.28;5055311;28;20481;-63
2022/07/26 04:39:14;;;;;;;25.60;7.82;;;;;;;16.27;100.00;101286.97;5056317;28;20036;-63
2022/07/26 04:41:40;;;;;;;23.15;7.03;;;;;;;16.32;100.00;101284.25;5056572;28;20376;-63
2022/07/26 04:44:05;;;;;;;23.67;7.70;;;;;;;16.31;100.00;101286.06;5055996;28;20036;-63
2022/07/26 04:46:30;;;;;;;23.40;7.32;;;;;;;16.34;100.00;101280.66;5056100;28;20052;-63
2022/07/26 04:48:55;;;;;;;25.20;7.55;;;;;;;16.33;100.00;101281.56;5056281;28;20448;-63
2022/07/26 04:51:21;;;;;;;26.10;8.10;;;;;;;16.32;100.00;101284.25;5055710;28;20123;-63
2022/07/26 04:53:46;;;;;;;25.00;7.80;;;;;;;16.30;100.00;101280.75;5056158;28;20357;-64
2022/07/26 04:56:11;;;;;;;23.90;7.60;;;;;;;16.29;100.00;101289.63;5055842;28;20040;-63
2022/07/26 04:58:37;;;;;;;21.40;6.95;;;;;;;16.28;100.00;101291.44;5055984;28;20025;-63
2022/07/26 05:01:02;;;;;;;23.00;7.32;;;;;;;16.26;100.00;101306.56;5055948;28;20021;-63
2022/07/26 05:03:27;;;;;;;28.38;8.07;;;;;;;16.23;100.00;101300.38;5055831;28;20112;-63
2022/07/26 05:05:53;;;;;;;24.55;7.45;;;;;;;16.19;100.00;101294.19;5054661;28;20484;-63
2022/07/26 05:08:18;;;;;;;23.00;7.35;;;;;;;16.15;100.00;101300.44;5055979;28;20052;-63
2022/07/26 05:10:44;;;;;;;22.67;7.43;;;;;;;16.14;100.00;101301.38;5055437;28;20112;-64
2022/07/26 05:13:09;;;;;;;22.70;7.18;;;;;;;16.16;100.00;101299.56;5055552;28;20104;-63
2022/07/26 05:15:35;;;;;;;23.27;7.32;;;;;;;16.18;100.00;101305.78;5055631;28;20037;-63
2022/07/26 05:18:06;;;;;;;22.65;7.28;;;;;;;16.19;100.00;101311.09;5055607;28;20021;-65
2022/07/26 05:20:31;;;;;;;24.13;7.38;;;;;;;16.23;100.00;101311.06;5051547;28;20450;-63
2022/07/26 05:22:58;;;;;;;23.23;7.07;;;;;;;16.27;100.00;101316.31;5055345;28;20024;-65
2022/07/26 05:25:24;;;;;;;23.40;7.50;;;;;;;16.30;100.00;101315.41;5055185;28;20037;-64
2022/07/26 05:27:49;;;;;;;25.00;7.53;;;;;;;16.33;100.00;101318.03;5055232;28;20147;-63
2022/07/26 05:30:14;;;;;;;25.77;8.10;;;;;;;16.39;100.00;101328.63;5055408;28;20155;-63
2022/07/26 05:32:40;;;;;;;26.27;7.63;;;;;;;16.44;100.00;101329.47;5055314;28;20329;-63
2022/07/26 05:35:06;;;;;;;26.02;7.75;;;;;;;16.45;100.00;101323.22;5051382;28;20060;-63
2022/07/26 05:37:32;;;;;;;23.65;7.72;;;;;;;16.48;100.00;101325.84;5051915;28;20040;-64
2022/07/26 05:39:57;;;;;;;25.92;8.25;;;;;;;16.53;100.00;101328.47;5050942;28;20367;-64
2022/07/26 05:42:24;;;;;;;23.63;7.97;;;;;;;16.61;100.00;101329.25;5047853;28;20164;-64
2022/07/26 05:44:49;;;;;;;25.73;8.25;;;;;;;16.67;100.00;101334.53;5051623;28;20028;-64
2022/07/26 05:47:14;;;;;;;25.25;8.23;;;;;;;16.72;100.00;101335.31;5050446;28;20036;-64
2022/07/26 05:49:40;;;;;;;22.92;8.13;;;;;;;16.80;100.00;101334.34;5052123;28;20021;-64
2022/07/26 05:52:21;;;;;;;22.83;7.80;;;;;;;16.87;100.00;101346.69;5004517;28;20050;-64
2022/07/26 05:54:47;;;;;;;23.70;8.30;;;;;;;16.97;100.00;101337.69;5010746;28;20050;-64
2022/07/26 05:57:12;;;;;;;27.08;8.77;;;;;;;17.00;100.00;101345.66;5010430;28;20045;-63
2022/07/26 05:59:37;;;;;;;25.67;8.40;;;;;;;17.11;100.00;101348.19;5011180;28;20030;-64
2022/07/26 06:02:03;;;;;;;24.23;8.43;;;;;;;17.20;100.00;101349.84;5010401;28;20041;-63
2022/07/26 06:04:28;;;;;;;22.50;8.20;;;;;;;17.23;100.00;101341.78;5010703;28;20074;-64
2022/07/26 06:06:54;;;;;;;23.00;7.60;;;;;;;17.25;100.00;101353.31;5010832;28;20087;-64
2022/07/26 06:09:19;;;;;;;22.55;7.32;;;;;;;17.27;100.00;101351.50;5010404;28;20034;-64
2022/07/26 06:11:45;;;;;;;26.17;7.60;;;;;;;17.25;100.00;101350.63;5010161;28;20108;-64
2022/07/26 06:14:10;;;;;;;22.15;7.72;;;;;;;17.23;100.00;101353.31;5010921;28;20030;-66
2022/07/26 06:16:35;;;;;;;22.50;7.75;;;;;;;17.25;100.00;101350.63;5010398;28;20419;-68
2022/07/26 06:19:01;;;;;;;22.40;6.97;;;;;;;17.30;100.00;101354.13;5010426;28;20033;-65
2022/07/26 06:21:26;;;;;;;23.73;7.90;;;;;;;17.38;100.00;101359.34;5009790;28;20049;-66
2022/07/26 06:23:52;;;;;;;22.98;7.50;;;;;;;17.38;100.00;101365.56;5010400;28;20045;-68
2022/07/26 06:26:17;;;;;;;20.63;7.35;;;;;;;17.44;100.00;101359.22;5010329;28;20033;-67
2022/07/26 06:28:42;;;;;;;21.30;7.32;;;;;;;17.50;100.00;101358.25;5017112;28;20126;-67
2022/07/26 06:31:09;;;;;;;20.67;6.90;;;;;;;17.51;100.00;101360.03;5051967;28;20499;-68
2022/07/26 06:33:34;;;;;;;21.65;7.20;;;;;;;17.58;100.00;101364.38;5051988;28;20029;-67
2022/07/26 06:36:00;;;;;;;22.45;7.32;;;;;;;17.62;100.00;101360.75;5050779;28;20033;-66
2022/07/26 06:38:25;;;;;;;23.00;7.20;;;;;;;17.70;100.00;101360.59;5051953;28;20040;-69
2022/07/26 06:40:51;;;;;;;21.83;7.65;;;;;;;17.78;100.00;101369.38;5052170;28;20024;-70
2022/07/26 06:43:16;;;;;;;21.77;7.38;;;;;;;17.84;100.00;101371.03;5051842;28;20032;-67
2022/07/26 06:45:41;;;;;;;23.02;7.57;;;;;;;17.91;100.00;101367.38;5051653;28;20029;-66
2022/07/26 06:48:07;;;;;;;23.45;7.90;;;;;;;17.98;100.00;101371.72;5052115;28;20115;-66
2022/07/26 06:50:32;;;;;;;23.95;6.97;;;;;;;18.13;100.00;101373.25;5051330;28;20492;-68
2022/07/26 06:52:57;;;;;;;22.60;7.20;;;;;;;18.14;100.00;101369.63;5051977;28;20033;-67
2022/07/26 06:55:23;;;;;;;21.60;6.70;;;;;;;18.18;100.00;101374.03;5051807;28;20029;-67
2022/07/26 06:57:48;;;;;;;20.35;6.45;;;;;;;18.15;100.00;101389.28;5051135;28;20464;-68
2022/07/26 07:00:14;;;;;;;22.10;6.55;;;;;;;18.20;100.00;101377.56;5051049;28;20376;-68
2022/07/26 07:02:40;;;;;;;20.33;6.28;;;;;;;18.47;100.00;101386.84;5051471;28;20032;-67
2022/07/26 07:05:05;;;;;;;20.70;5.70;;;;;;;18.49;100.00;101393.97;5051399;28;20029;-66
2022/07/26 07:07:31;;;;;;;21.05;5.47;;;;;;;18.47;100.00;101392.19;5051238;28;20025;-67
2022/07/26 07:09:56;;;;;;;19.70;4.93;;;;;;;18.62;100.00;101398.16;5049833;28;20016;-68
2022/07/26 07:12:22;;;;;;;18.48;5.15;;;;;;;18.69;100.00;101396.25;5049638;28;20025;-69
2022/07/26 07:14:47;;;;;;;21.15;4.80;;;;;;;18.77;100.00;101400.53;5051220;28;20032;-67
2022/07/26 07:17:17;;;;;;;18.23;4.50;;;;;;;18.82;100.00;101403.97;5051689;28;20025;-66
2022/07/26 07:19:43;;;;;;;17.80;4.13;;;;;;;19.03;100.00;101401.78;5051391;28;20025;-68
2022/07/26 07:22:10;;;;;;;17.08;4.28;;;;;;;19.28;100.00;101399.44;5050370;28;20031;-68
2022/07/26 07:24:36;;;;;;;18.88;4.20;;;;;;;19.33;100.00;101385.94;5050117;28;20082;-68
2022/07/26 07:27:01;;;;;;;16.05;4.22;;;;;;;19.34;100.00;101395.75;5048410;28;20041;-70
2022/07/26 07:29:26;;;;;;;16.45;4.00;;;;;;;19.32;100.00;101397.56;5048206;28;20021;-68
2022/07/26 07:31:52;;;;;;;17.60;4.00;;;;;;;19.47;100.00;101407.03;5046617;28;20021;-66
2022/07/26 07:34:21;;;;;;;16.73;4.00;;;;;;;19.71;100.00;101413.59;5047848;28;20039;-69
2022/07/26 07:36:47;;;;;;;17.85;3.90;;;;;;;19.66;100.00;101407.50;5045584;28;20037;-64
2022/07/26 07:39:12;;;;;;;17.48;4.00;;;;;;;19.50;100.00;101405.16;5047734;28;20025;-64
2022/07/26 07:41:38;;;;;;;18.17;4.35;;;;;;;19.57;100.00;101410.38;5045473;28;20115;-67
2022/07/26 07:44:04;;;;;;;18.58;4.15;;;;;;;19.64;100.00;101410.22;5047562;28;20452;-64
2022/07/26 07:46:29;;;;;;;17.40;4.25;;;;;;;19.80;100.00;101405.34;5047685;28;20083;-64
2022/07/26 07:48:55;;;;;;;16.50;4.30;;;;;;;19.98;100.00;101409.38;5047754;28;20029;-65
2022/07/26 07:51:20;;;;;;;17.80;4.32;;;;;;;19.99;100.00;101418.31;5046647;28;20051;-67
2022/07/26 07:53:45;;;;;;;17.98;4.28;;;;;;;20.08;100.00;101418.09;5048358;28;20033;-64
2022/07/26 07:56:11;;;;;;;16.95;4.20;;;;;;;20.14;100.00;101407.19;5047699;28;20086;-64
2022/07/26 07:58:36;;;;;;;17.38;4.20;;;;;;;20.12;100.00;101414.38;5047325;28;20017;-64
2022/07/26 08:01:01;;;;;;;17.25;4.28;;;;;;;20.26;100.00;101407.78;5046391;28;20496;-63
2022/07/26 08:03:27;;;;;;;16.25;4.55;;;;;;;20.26;100.00;101414.00;5042815;28;20025;-64
2022/07/26 08:05:52;;;;;;;16.98;4.50;;;;;;;20.06;100.00;101425.28;5050078;28;20119;-65
2022/07/26 08:08:19;;;;;;;16.13;5.00;;;;;;;19.85;100.00;101416.84;5050644;28;20025;-64
2022/07/26 08:10:44;;;;;;;16.77;5.10;;;;;;;19.63;100.00;101423.63;5049357;28;20613;-64
2022/07/26 08:13:09;;;;;;;16.33;5.10;;;;;;;19.48;100.00;101431.16;5050395;28;20040;-64
2022/07/26 08:15:35;;;;;;;11.07;3.25;;;;;;;19.41;100.00;101434.88;5050025;28;20064;-64
2022/07/26 08:18:00;;;;;;;8.20;2.50;;;;;;;19.16;100.00;101435.44;5051118;28;20438;-64
2022/07/26 08:20:25;;;;;;;8.35;2.30;;;;;;;19.14;100.00;101447.09;5051679;28;20505;-64
2022/07/26 08:22:51;;;;;;;6.05;2.28;;;;;;;19.10;100.00;101443.59;5052176;28;20449;-64
2022/07/26 08:25:17;;;;;;;3.35;2.15;;;;;;;19.18;100.00;101451.47;5052317;28;20033;-63
2022/07/26 08:27:42;;;;;;;5.18;2.03;;;;;;;19.31;100.00;101449.41;5052114;28;20028;-64
2022/07/26 08:30:08;;;;;;;7.07;2.25;;;;;;;19.40;100.00;101448.31;5052460;28;20036;-64
2022/07/26 08:32:33;;;;;;;7.32;2.10;;;;;;;19.33;100.00;101450.25;5052353;28;20065;-63
2022/07/26 08:34:58;;;;;;;5.28;2.13;;;;;;;19.26;100.00;101449.50;5051931;28;20029;-64
2022/07/26 08:37:24;;;;;;;3.28;1.98;;;;;;;19.40;100.00;101457.25;5052383;28;20022;-63
2022/07/26 08:39:49;;;;;;;6.43;2.20;;;;;;;19.61;100.00;101458.53;5052230;28;20029;-64
2022/07/26 08:42:17;;;;;;;6.13;2.20;;;;;;;20.09;100.00;101469.94;5051884;28;20036;-66
2022/07/26 08:44:43;;;;;;;4.82;2.00;;;;;;;20.64;100.00;101470.28;5052272;28;20022;-64
2022/07/26 08:47:13;;;;;;;6.43;2.00;;;;;;;21.10;100.00;101469.00;5051815;28;20467;-64
2022/07/26 08:49:39;;;;;;;6.82;2.17;;;;;;;21.25;100.00;101468.50;5048112;28;20494;-64
2022/07/26 08:52:05;;;;;;;6.95;2.15;;;;;;;21.35;100.00;101461.06;5048535;28;20459;-70
2022/07/26 08:54:31;;;;;;;5.18;2.00;;;;;;;21.77;100.00;101467.84;5049179;28;20025;-69
2022/07/26 08:56:58;;;;;;;4.32;1.80;;;;;;;22.07;100.00;101467.75;5049493;28;20027;-70
2022/07/26 08:59:23;;;;;;;4.07;1.75;;;;;;;21.90;100.00;101479.97;5050631;28;20398;-67
2022/07/26 09:02:00;;;;;;;2.67;1.80;;;;;;;21.38;100.00;101476.22;5049506;28;20379;-68
2022/07/26 09:04:31;;;;;;;7.80;2.08;;;;;;;21.10;100.00;101471.69;5046928;28;20107;-66
2022/07/26 09:07:17;;;;;;;5.05;2.00;;;;;;;21.42;100.00;101480.53;5049424;28;20020;-68
2022/07/26 09:10:04;;;;;;;7.88;2.25;;;;;;;22.14;100.00;101476.50;5048987;28;20036;-68
2022/07/26 09:12:31;;;;;;;6.00;2.35;;;;;;;22.30;100.00;101480.41;5049433;28;20024;-67
2022/07/26 09:14:57;;;;;;;5.05;2.30;;;;;;;22.60;100.00;101489.25;5050011;28;20128;-68
2022/07/26 09:17:36;;;;;;;7.40;2.20;;;;;;;22.38;100.00;101488.25;5050115;28;20060;-66
2022/07/26 09:20:24;;;;;;;8.18;2.50;;;;;;;22.20;100.00;101495.13;5049930;28;20035;-64
2022/07/26 09:23:06;;;;;;;7.20;2.42;;;;;;;22.08;100.00;101493.72;5051371;28;20025;-64
2022/07/26 09:25:37;;;;;;;6.63;2.30;;;;;;;22.18;100.00;101499.66;5053183;28;20043;-64
2022/07/26 09:28:21;;;;;;;5.93;2.30;;;;;;;22.45;100.00;101501.47;5050365;28;20021;-65
2022/07/26 09:31:03;;;;;;;6.03;2.20;;;;;;;22.77;100.00;101504.78;5053151;28;20025;-65
2022/07/26 09:33:45;;;;;;;;;;;;;;;22.93;100.00;101505.13;5053212;28;20029;-64
2022/07/26 09:36:10;;;;;;;8.65;2.40;;;;;;;22.54;99.44;101502.97;5050278;28;19913;-64
2022/07/26 09:38:45;;;;;;;9.07;2.60;;;;;;;22.32;100.00;101509.97;5053447;28;20024;-64
2022/07/26 09:41:17;;;;;;;8.20;2.60;;;;;;;22.18;100.00;101500.56;5052723;28;20040;-64
2022/07/26 09:43:42;;;;;;;11.77;2.78;;;;;;;22.14;99.08;101504.28;5052635;28;20029;-64
2022/07/26 09:46:09;;;;;;;8.75;2.60;;;;;;;22.47;98.45;101509.50;5053408;28;20073;-63
2022/07/26 09:48:38;;;;;;;9.07;2.50;;;;;;;22.69;97.12;101516.78;5050709;28;20025;-63
2022/07/26 09:51:04;;;;;;;15.18;3.40;;;;;;;22.58;98.12;101520.75;5052807;28;20052;-63
2022/07/26 09:53:41;;;;;;;8.68;2.63;;;;;;;22.74;98.82;101521.06;5052154;28;20033;-63
2022/07/26 09:56:07;;;;;;;12.18;2.72;;;;;;;23.02;96.82;101520.06;5052764;28;20068;-64
2022/07/26 09:58:34;;;;;;;9.95;2.60;;;;;;;22.93;94.61;101525.81;5052837;28;20434;-63
2022/07/26 10:00:59;;;;;;;9.35;2.50;;;;;;;23.14;94.77;101532.28;5053467;28;20021;-64
2022/07/26 10:03:24;;;;;;;10.32;2.40;;;;;;;23.72;93.31;101531.84;5053801;28;20434;-63
2022/07/26 10:05:50;;;;;;;8.23;2.30;;;;;;;25.23;82.56;101540.72;5051436;28;20439;-63
2022/07/26 10:08:17;;;;;;;8.27;2.30;;;;;;;25.33;80.29;101530.38;5052447;28;20532;-64
2022/07/26 10:10:54;;;;;;;7.30;2.10;;;;;;;24.86;81.51;101537.88;5052713;28;20530;-64
2022/07/26 10:13:20;;;;;;;4.70;1.90;;;;;;;24.64;79.75;101537.94;5052212;28;20111;-64
2022/07/26 10:15:48;;;;;;;7.25;1.98;;;;;;;24.11;82.73;101538.38;5052504;28;20040;-64
2022/07/26 10:18:35;;;;;;;5.65;1.90;;;;;;;23.68;86.31;101541.84;5052566;28;20126;-64
2022/07/26 10:21:24;;;;;;;4.93;1.98;;;;;;;23.20;89.00;101545.50;5052388;28;20472;-64
2022/07/26 10:23:57;;;;;;;5.03;1.70;;;;;;;22.74;88.98;101536.38;5051296;28;20021;-64
2022/07/26 10:26:31;;;;;;;6.50;2.00;;;;;;;22.70;89.25;101553.59;5052795;28;20033;-64
2022/07/26 10:29:18;;;;;;;7.35;1.90;;;;;;;22.67;88.52;101557.25;5051035;28;20029;-63
2022/07/26 10:31:47;;;;;;;5.57;2.10;;;;;;;22.56;88.10;101554.09;5050563;28;20032;-64
2022/07/26 10:34:34;;;;;;;8.27;1.98;;;;;;;22.82;87.89;101561.25;5053641;28;20098;-64
2022/07/26 10:37:02;;;;;;;7.90;2.20;;;;;;;23.17;84.20;101567.19;5051728;28;20059;-64
2022/07/26 10:39:27;;;;;;;8.85;2.10;;;;;;;24.36;80.20;101567.94;5053791;28;20025;-64
2022/07/26 10:41:59;;;;;;;7.10;2.00;;;;;;;25.39;74.46;101566.13;5054222;28;20103;-64
2022/07/26 10:44:30;;;;;;;5.63;2.00;;;;;;;25.54;72.28;101560.97;5053714;28;20503;-64
2022/07/26 10:47:10;;;;;;;5.75;2.00;;;;;;;25.99;71.17;101565.09;5053552;28;20506;-64
2022/07/26 10:49:40;;;;;;;5.85;1.70;;;;;;;26.01;67.41;101565.06;5053886;28;20039;-64
2022/07/26 10:52:20;;;;;;;4.45;1.80;;;;;;;25.67;68.57;101566.66;5053595;28;20045;-63
2022/07/26 10:55:03;;;;;;;6.28;1.80;;;;;;;25.88;68.90;101562.94;5050074;28;20503;-64
2022/07/26 10:57:30;;;;;;;8.27;2.05;;;;;;;25.72;68.22;101573.63;5051957;28;20021;-64
2022/07/26 10:59:56;;;;;;;6.15;1.80;;;;;;;25.60;67.32;101576.03;5053477;28;20031;-64
2022/07/26 11:02:30;;;;;;;4.05;1.92;;;;;;;24.92;68.16;101577.28;5053272;28;20112;-64
2022/07/26 11:05:16;;;;;;;3.92;1.85;;;;;;;24.69;70.81;101581.84;5053685;28;20414;-65
2022/07/26 11:07:55;;;;;;;6.30;1.65;;;;;;;24.48;72.06;101580.94;5050928;28;20059;-64
2022/07/26 11:10:26;;;;;;;7.80;2.00;;;;;;;24.22;73.66;101584.72;5053598;28;20060;-65
2022/07/26 11:13:24;;;;;;;9.63;2.13;;;;;;;24.02;76.89;101591.81;5053044;28;20021;-65
2022/07/26 11:16:01;;;;;;;8.27;2.20;;;;;;;22.75;84.41;101600.13;5051923;28;20102;-66
2022/07/26 11:18:31;;;;;;;8.07;2.20;;;;;;;21.69;96.07;101599.03;5053128;28;20039;-65